South Byron, Wisconsin
Current Conditions -  °F | °C
As of 8:53 PM on Monday 22 Dec 2014 (Local Time) from KFLD Reporting Station
Light Rain Light Rain  
Wind Chill: 29°   Ceiling: 800
Heat Index: 38°   Visibility: 10mi
Dew Point: 35°   Wind: 17mph
Humidity: 89%   Direction: 120°ESE
Pressure: 29.66"   Gusts: 23mph
Location:  43.6092°N, 88.5191°W
Report Text: KFLD 230253Z AUTO 12015G20KT 10SM -RA OVC008 03/02 A2966 RMK AO2 UPE25RAB25 SLP050 P0000 60004 T00330017 58017
Loading
Personal Weather Stations






























Interactive Weather Map New forecast layout! Learn more

10-Day Weather Forecast

Advertisements
Track Severe Weather on mobile